Time;durP1;ratioP1;P1;durP2;ratioP2;P2;SDS_P1;SDS_P2;PMS_P1;PMS_P2;Temp;Humidity;BMP_temperature;BMP_pressure;BME280_temperature;BME280_humidity;BME280_pressure;Samples;Min_cycle;Max_cycle;Signal;HPM_P1;HPM_P2
2023/07/31 00:01:56;;;;;;;8.73;7.13;;;;;;;26.15;100.00;100395.63;5097744;28;20093;-80
2023/07/31 00:04:41;;;;;;;9.98;7.10;;;;;;;26.41;100.00;100402.28;5083488;28;20364;-80
2023/07/31 00:07:27;;;;;;;7.10;5.75;;;;;;;26.24;100.00;100397.53;5097708;28;20024;-80
2023/07/31 00:10:13;;;;;;;7.18;5.28;;;;;;;26.37;100.00;100414.28;5083618;28;20048;-80
2023/07/31 00:12:59;;;;;;;7.70;4.97;;;;;;;26.43;100.00;100409.22;5096751;28;20031;-79
2023/07/31 00:15:44;;;;;;;5.90;4.80;;;;;;;26.15;100.00;100401.00;5097684;28;20039;-81
2023/07/31 00:18:30;;;;;;;5.63;4.40;;;;;;;26.25;100.00;100393.84;5097679;28;20044;-81
2023/07/31 00:21:16;;;;;;;7.32;4.32;;;;;;;26.54;100.00;100393.00;5083308;28;20060;-80
2023/07/31 00:24:02;;;;;;;4.40;4.00;;;;;;;26.65;100.00;100397.47;5083397;28;20055;-79
2023/07/31 00:26:47;;;;;;;5.18;4.05;;;;;;;26.44;100.00;100404.72;5097548;28;20024;-80
2023/07/31 00:29:33;;;;;;;6.80;4.20;;;;;;;26.40;100.00;100401.41;5082739;28;20019;-81
2023/07/31 00:32:19;;;;;;;5.03;3.97;;;;;;;26.23;100.00;100395.81;5084626;28;20024;-80
2023/07/31 00:35:05;;;;;;;7.53;4.70;;;;;;;26.13;100.00;100411.91;5098300;28;20061;-79
2023/07/31 00:37:50;;;;;;;5.78;4.05;;;;;;;26.09;100.00;100410.47;5083788;28;20020;-79
2023/07/31 00:40:37;;;;;;;5.43;4.13;;;;;;;26.16;100.00;100397.34;5082955;28;20027;-80
2023/07/31 00:43:23;;;;;;;4.05;3.65;;;;;;;26.30;100.00;100396.97;5097186;28;20028;-80
2023/07/31 00:46:09;;;;;;;4.10;3.50;;;;;;;26.04;100.00;100401.94;5083897;28;20115;-80
2023/07/31 00:48:55;;;;;;;9.38;3.88;;;;;;;25.79;100.00;100404.13;5096261;28;20131;-78
2023/07/31 00:51:40;;;;;;;4.07;3.50;;;;;;;25.58;100.00;100401.44;5083182;28;20349;-81
2023/07/31 00:54:26;;;;;;;4.28;3.88;;;;;;;25.52;100.00;100399.25;5096857;28;20439;-81
2023/07/31 00:57:12;;;;;;;6.55;4.13;;;;;;;25.55;100.00;100396.31;5097352;28;20352;-81
2023/07/31 00:59:58;;;;;;;4.10;3.65;;;;;;;25.62;100.00;100377.88;5097062;28;20030;-80
2023/07/31 01:02:44;;;;;;;7.32;4.05;;;;;;;25.48;100.00;100391.63;5096899;28;20024;-81
2023/07/31 01:05:56;;;;;;;5.20;3.95;;;;;;;25.63;100.00;100384.97;5082790;28;20028;-80
2023/07/31 01:08:50;;;;;;;5.03;4.10;;;;;;;25.18;100.00;100378.88;5097030;28;20024;-81
2023/07/31 01:12:05;;;;;;;4.45;3.75;;;;;;;25.22;100.00;100372.28;5097017;28;20027;-81
2023/07/31 01:15:03;;;;;;;6.05;3.47;;;;;;;25.22;100.00;100383.03;5096933;28;20116;-81
2023/07/31 01:17:49;;;;;;;5.97;3.80;;;;;;;25.04;100.00;100373.78;5096979;28;20035;-81
2023/07/31 01:20:37;;;;;;;6.05;3.53;;;;;;;25.22;100.00;100382.16;5096541;28;20550;-80
2023/07/31 01:23:46;;;;;;;5.03;3.70;;;;;;;25.11;100.00;100382.22;5082095;28;20058;-79
2023/07/31 01:26:38;;;;;;;5.25;3.67;;;;;;;25.06;100.00;100369.19;5096876;28;20024;-81
2023/07/31 01:30:04;;;;;;;5.90;3.58;;;;;;;24.85;100.00;100362.03;5082143;28;20023;-81
2023/07/31 01:32:52;;;;;;;4.75;3.33;;;;;;;24.93;100.00;100371.16;5096445;28;20413;-80
2023/07/31 01:35:38;;;;;;;5.80;3.33;;;;;;;24.95;100.00;100369.19;5081895;28;20028;-80
2023/07/31 01:38:24;;;;;;;6.90;3.55;;;;;;;24.93;100.00;100376.53;5096828;28;20035;-81
2023/07/31 01:41:09;;;;;;;5.32;3.85;;;;;;;24.83;100.00;100378.25;5081161;28;20028;-81
2023/07/31 01:43:55;;;;;;;8.25;4.60;;;;;;;24.42;100.00;100379.84;5082203;28;20039;-81
2023/07/31 01:46:41;;;;;;;7.07;4.50;;;;;;;24.66;100.00;100386.81;5081975;28;20109;-81
2023/07/31 01:49:27;;;;;;;7.63;5.22;;;;;;;24.29;100.00;100392.50;5096695;28;20020;-80
2023/07/31 01:52:12;;;;;;;7.65;5.70;;;;;;;23.78;100.00;100397.38;5107034;28;20056;-79
2023/07/31 01:54:58;;;;;;;8.05;5.70;;;;;;;23.42;100.00;100408.19;5082323;28;20094;-81
2023/07/31 01:57:44;;;;;;;10.68;6.60;;;;;;;23.76;100.00;100399.34;5081409;28;20028;-79
2023/07/31 02:00:30;;;;;;;7.80;6.38;;;;;;;23.66;100.00;100405.50;5080507;28;20020;-79
2023/07/31 02:03:15;;;;;;;10.65;7.28;;;;;;;22.75;100.00;100412.28;5095418;28;20024;-80
2023/07/31 02:06:01;;;;;;;8.38;6.88;;;;;;;22.79;100.00;100413.75;5082045;28;20020;-79
2023/07/31 02:08:47;;;;;;;11.27;8.13;;;;;;;23.18;100.00;100410.84;5095989;28;20028;-79
2023/07/31 02:11:32;;;;;;;8.18;7.35;;;;;;;23.33;100.00;100409.75;5103852;28;20081;-80
2023/07/31 02:14:18;;;;;;;8.90;7.43;;;;;;;23.30;100.00;100419.81;5081004;28;20028;-80
2023/07/31 02:17:04;;;;;;;13.05;8.73;;;;;;;23.52;100.00;100418.06;5096068;28;20035;-81
2023/07/31 02:19:50;;;;;;;9.52;8.52;;;;;;;-140.66;100.00;55571.53;5095440;28;20358;-81
2023/07/31 02:22:36;;;;;;;10.73;8.27;;;;;;;-140.66;100.00;55571.53;5082174;28;20039;-81
2023/07/31 02:25:21;;;;;;;12.00;8.13;;;;;;;-140.66;100.00;55571.53;5082470;28;20024;-81
2023/07/31 02:28:07;;;;;;;10.50;7.75;;;;;;;-140.66;100.00;55571.53;5094745;28;20119;-81
2023/07/31 02:30:53;;;;;;;11.88;8.27;;;;;;;-140.66;100.00;55571.53;5094858;28;20032;-80
2023/07/31 02:33:39;;;;;;;8.50;7.57;;;;;;;-140.66;100.00;55571.53;5095406;28;20444;-81
2023/07/31 02:36:24;;;;;;;9.63;7.50;;;;;;;-140.66;100.00;55571.53;5095571;28;20368;-80
2023/07/31 02:39:10;;;;;;;9.52;7.65;;;;;;;-140.66;100.00;55571.53;5095299;28;20054;-82
2023/07/31 02:41:56;;;;;;;9.30;7.82;;;;;;;-140.66;100.00;55571.53;5096140;28;20467;-81
2023/07/31 02:44:41;;;;;;;8.90;7.85;;;;;;;-140.66;100.00;55571.53;5095357;28;20035;-81
2023/07/31 02:47:27;;;;;;;12.40;8.38;;;;;;;-140.66;100.00;55571.53;5080947;28;20035;-81
2023/07/31 02:50:13;;;;;;;11.82;8.60;;;;;;;-140.66;100.00;55571.53;5080842;28;20016;-80
2023/07/31 02:52:59;;;;;;;12.68;9.75;;;;;;;-140.66;100.00;55571.53;5094833;28;20028;-81
2023/07/31 02:55:44;;;;;;;12.38;9.65;;;;;;;-140.66;100.00;55571.53;5094877;28;20035;-82
2023/07/31 02:58:30;;;;;;;11.90;9.68;;;;;;;-140.66;100.00;55571.53;5080157;28;20529;-81
2023/07/31 03:01:16;;;;;;;11.75;9.98;;;;;;;-140.66;100.00;55571.53;5094427;28;20035;-81
2023/07/31 03:04:02;;;;;;;10.65;9.55;;;;;;;-140.66;100.00;55571.53;5080239;28;20033;-80
2023/07/31 03:06:47;;;;;;;11.20;10.10;;;;;;;-140.66;100.00;55571.53;5080208;28;20028;-80
2023/07/31 03:09:33;;;;;;;11.25;9.88;;;;;;;-140.66;100.00;55571.53;5079565;28;20020;-81
2023/07/31 03:12:19;;;;;;;11.55;9.63;;;;;;;-140.66;100.00;55571.53;5080207;28;20042;-80
2023/07/31 03:15:05;;;;;;;10.82;9.65;;;;;;;-140.66;100.00;55571.53;5095114;28;20027;-81
2023/07/31 03:17:51;;;;;;;10.88;9.45;;;;;;;-140.66;100.00;55571.53;5095244;28;20042;-81
2023/07/31 03:20:37;;;;;;;12.65;9.90;;;;;;;-140.66;100.00;55571.53;5080220;28;20040;-81
2023/07/31 03:23:25;;;;;;;12.50;11.20;;;;;;;-140.66;100.00;55571.53;5094551;28;20048;-81
2023/07/31 03:26:11;;;;;;;10.77;9.32;;;;;;;-140.66;100.00;55571.53;5094641;28;20024;-81
2023/07/31 03:28:56;;;;;;;10.95;9.50;;;;;;;-140.66;100.00;55571.53;5094398;28;20364;-81
2023/07/31 03:31:42;;;;;;;10.57;9.48;;;;;;;-140.66;100.00;55571.53;5079958;28;20113;-80
2023/07/31 03:34:28;;;;;;;10.57;9.48;;;;;;;-140.66;100.00;55571.53;5094444;28;20119;-84
2023/07/31 03:37:14;;;;;;;9.80;8.82;;;;;;;-140.66;100.00;55571.53;5075036;28;20123;-81
2023/07/31 03:40:00;;;;;;;10.88;9.77;;;;;;;-140.66;100.00;55571.53;5101874;28;20463;-80
2023/07/31 03:42:46;;;;;;;12.43;9.98;;;;;;;-140.66;100.00;55571.53;5094554;28;20059;-81
2023/07/31 03:45:31;;;;;;;10.82;9.73;;;;;;;-140.66;100.00;55571.53;5095448;28;20093;-82
2023/07/31 03:48:17;;;;;;;11.63;10.38;;;;;;;-140.66;100.00;55571.53;5080028;28;20032;-80
2023/07/31 03:51:03;;;;;;;12.52;11.15;;;;;;;-140.66;100.00;55571.53;5093990;28;20016;-81
2023/07/31 03:53:49;;;;;;;12.63;9.95;;;;;;;-140.66;100.00;55571.53;5093813;28;20020;-81
2023/07/31 03:56:34;;;;;;;11.50;10.30;;;;;;;-140.66;100.00;55571.53;5095695;28;20122;-81
2023/07/31 03:59:20;;;;;;;12.05;9.80;;;;;;;-140.66;100.00;55571.53;5079525;28;20028;-82
2023/07/31 04:02:06;;;;;;;11.77;10.57;;;;;;;-140.66;100.00;55571.53;5093409;28;20028;-81
2023/07/31 04:04:51;;;;;;;13.57;10.43;;;;;;;-140.66;100.00;55571.53;5094381;28;20035;-81
2023/07/31 04:07:37;;;;;;;13.50;11.30;;;;;;;-140.66;100.00;55571.53;5093820;28;20049;-81
2023/07/31 04:10:23;;;;;;;11.88;10.63;;;;;;;-140.66;100.00;55571.53;5093225;28;20026;-81
2023/07/31 04:13:09;;;;;;;12.30;10.75;;;;;;;-140.66;100.00;55571.53;5093952;28;20020;-82
2023/07/31 04:15:54;;;;;;;12.20;10.57;;;;;;;-140.66;100.00;55571.53;5078394;28;20425;-81
2023/07/31 04:18:40;;;;;;;12.73;10.65;;;;;;;-140.66;100.00;55571.53;5093954;28;20141;-80
2023/07/31 04:21:26;;;;;;;14.43;10.65;;;;;;;-140.66;100.00;55571.53;5094139;28;20071;-80
2023/07/31 04:24:12;;;;;;;11.57;10.10;;;;;;;-140.66;100.00;55571.53;5113093;28;20028;-81
2023/07/31 04:26:57;;;;;;;12.27;10.95;;;;;;;-140.66;100.00;55571.53;5097550;28;20028;-80
2023/07/31 04:29:45;;;;;;;12.18;10.38;;;;;;;-140.66;100.00;55571.53;5098428;28;20020;-82
2023/07/31 04:32:31;;;;;;;11.45;10.25;;;;;;;-140.66;100.00;55571.53;5097494;28;20081;-81
2023/07/31 04:35:17;;;;;;;13.32;10.52;;;;;;;-140.66;100.00;55571.53;5097677;28;20024;-81
2023/07/31 04:38:03;;;;;;;12.38;11.07;;;;;;;-140.66;100.00;55571.53;5082497;28;20027;-81
2023/07/31 04:40:49;;;;;;;12.95;10.73;;;;;;;-140.66;100.00;55571.53;5088555;28;20045;-80
2023/07/31 04:43:34;;;;;;;12.73;11.23;;;;;;;-140.66;100.00;55571.53;5120175;28;20028;-81
2023/07/31 04:46:20;;;;;;;13.10;11.70;;;;;;;-140.66;100.00;55571.53;5091048;28;20122;-82
2023/07/31 04:49:06;;;;;;;15.07;12.10;;;;;;;-140.66;100.00;55571.53;5091583;28;20027;-81
2023/07/31 04:51:52;;;;;;;12.88;11.57;;;;;;;-140.66;100.00;55571.53;5118797;28;20097;-81
2023/07/31 04:54:37;;;;;;;12.95;11.65;;;;;;;-140.66;100.00;55571.53;5121134;28;20012;-81
2023/07/31 04:57:23;;;;;;;13.57;12.02;;;;;;;-140.66;100.00;55571.53;5119910;28;20047;-81
2023/07/31 05:00:09;;;;;;;14.60;12.38;;;;;;;-140.66;100.00;55571.53;5099166;28;20132;-81
2023/07/31 05:02:55;;;;;;;13.85;12.35;;;;;;;-140.66;100.00;55571.53;5096742;28;20016;-80
2023/07/31 05:05:41;;;;;;;14.48;12.43;;;;;;;-140.66;100.00;55571.53;5082996;28;20433;-81
2023/07/31 05:08:26;;;;;;;15.10;13.20;;;;;;;-140.66;100.00;55571.53;5096942;28;20066;-80
2023/07/31 05:11:12;;;;;;;15.48;13.30;;;;;;;-140.66;100.00;55571.53;5097314;28;20093;-82
2023/07/31 05:13:58;;;;;;;15.38;12.90;;;;;;;-140.66;100.00;55571.53;5081362;28;20020;-81
2023/07/31 05:16:43;;;;;;;14.20;12.35;;;;;;;-140.66;100.00;55571.53;5096902;28;20024;-80
2023/07/31 05:19:29;;;;;;;23.73;12.50;;;;;;;-140.66;100.00;55571.53;5096728;28;20467;-81
2023/07/31 05:22:15;;;;;;;14.10;12.60;;;;;;;-140.66;100.00;55571.53;5096954;28;20120;-81
2023/07/31 05:25:01;;;;;;;13.63;12.23;;;;;;;-140.66;100.00;55571.53;5081668;28;20024;-81
2023/07/31 05:27:46;;;;;;;14.82;12.45;;;;;;;-140.66;100.00;55571.53;5097406;28;20081;-82
2023/07/31 05:30:32;;;;;;;14.32;12.70;;;;;;;-140.66;100.00;55571.53;5097499;28;20016;-81
2023/07/31 05:33:18;;;;;;;17.50;12.55;;;;;;;-140.66;100.00;55571.53;5097623;28;20432;-82
2023/07/31 05:36:04;;;;;;;13.90;12.43;;;;;;;-140.66;100.00;55571.53;5098349;28;20043;-81
2023/07/31 05:38:50;;;;;;;15.73;13.02;;;;;;;-140.66;100.00;55571.53;5096330;28;20429;-81
2023/07/31 05:41:35;;;;;;;17.17;13.68;;;;;;;-140.66;100.00;55571.53;5080771;28;20026;-80
2023/07/31 05:44:21;;;;;;;14.40;12.75;;;;;;;-140.66;100.00;55571.53;5096909;28;20333;-81
2023/07/31 05:47:07;;;;;;;14.27;12.77;;;;;;;-140.66;100.00;55571.53;5089963;28;20028;-82
2023/07/31 05:49:53;;;;;;;13.60;11.48;;;;;;;-140.66;100.00;55571.53;5083308;28;20027;-82
2023/07/31 05:52:39;;;;;;;13.10;11.35;;;;;;;-140.66;100.00;55571.53;5081939;28;20059;-83
2023/07/31 05:55:26;;;;;;;12.43;10.95;;;;;;;-140.66;100.00;55571.53;5095530;28;20095;-83
2023/07/31 05:58:12;;;;;;;11.07;9.82;;;;;;;-140.66;100.00;55571.53;5095673;28;20101;-83
2023/07/31 06:00:58;;;;;;;11.13;9.95;;;;;;;-140.66;100.00;55571.53;5095465;28;20020;-82
2023/07/31 06:03:44;;;;;;;10.65;9.55;;;;;;;-140.66;100.00;55571.53;5095682;28;20414;-82
2023/07/31 06:06:30;;;;;;;10.40;8.52;;;;;;;-140.66;100.00;55571.53;5095646;28;20029;-82
2023/07/31 06:09:16;;;;;;;11.43;10.32;;;;;;;-140.66;100.00;55571.53;5095534;28;20027;-82
2023/07/31 06:12:02;;;;;;;10.68;9.50;;;;;;;-140.66;100.00;55571.53;5096642;28;20408;-81
2023/07/31 06:14:48;;;;;;;11.05;9.85;;;;;;;-140.66;100.00;55571.53;5081766;28;20448;-83
2023/07/31 06:17:33;;;;;;;12.15;10.82;;;;;;;-140.66;100.00;55571.53;5095942;28;20086;-81
2023/07/31 06:20:19;;;;;;;12.57;10.00;;;;;;;-140.66;100.00;55571.53;5095391;28;20048;-82
2023/07/31 06:23:05;;;;;;;11.90;10.80;;;;;;;-140.66;100.00;55571.53;5081180;28;20436;-83
2023/07/31 06:25:51;;;;;;;11.95;9.98;;;;;;;-140.66;100.00;55571.53;5081000;28;20114;-82
2023/07/31 06:28:36;;;;;;;12.43;11.20;;;;;;;-140.66;100.00;55571.53;5082095;28;20031;-82
2023/07/31 06:31:22;;;;;;;12.57;11.23;;;;;;;-140.66;100.00;55571.53;5096560;28;20091;-82
2023/07/31 06:34:08;;;;;;;17.45;13.05;;;;;;;-140.66;100.00;55571.53;5080800;28;20104;-83
2023/07/31 06:36:56;;;;;;;14.32;12.88;;;;;;;-140.66;100.00;55571.53;5096364;28;20100;-82
2023/07/31 06:39:41;;;;;;;15.00;13.38;;;;;;;-140.66;100.00;55571.53;5096341;28;20360;-81
2023/07/31 06:42:27;;;;;;;16.73;14.93;;;;;;;-140.66;100.00;55571.53;5096366;28;20036;-82
2023/07/31 06:45:13;;;;;;;18.23;13.55;;;;;;;-140.66;100.00;55571.53;5095126;28;20441;-83
2023/07/31 06:48:01;;;;;;;16.75;12.98;;;;;;;-140.66;100.00;55571.53;5096474;28;20372;-82
2023/07/31 06:50:47;;;;;;;14.98;12.60;;;;;;;-140.66;100.00;55571.53;5101352;28;20058;-82
2023/07/31 06:53:32;;;;;;;13.30;11.90;;;;;;;-140.66;100.00;55571.53;5083837;28;20030;-81
2023/07/31 06:56:18;;;;;;;13.90;11.40;;;;;;;-140.66;100.00;55571.53;5096017;28;20116;-82
2023/07/31 06:59:04;;;;;;;12.05;10.82;;;;;;;-140.66;100.00;55571.53;5079655;28;20089;-82
2023/07/31 07:01:50;;;;;;;13.10;11.77;;;;;;;-140.66;100.00;55571.53;5100357;28;20110;-82
2023/07/31 07:04:35;;;;;;;12.95;11.63;;;;;;;-140.66;100.00;55571.53;5085754;28;20023;-81
2023/07/31 07:07:21;;;;;;;13.18;11.77;;;;;;;-140.66;100.00;55571.53;5085979;28;20081;-82
2023/07/31 07:10:07;;;;;;;15.23;11.13;;;;;;;-140.66;100.00;55571.53;5092131;28;20032;-82
2023/07/31 07:12:56;;;;;;;12.52;11.23;;;;;;;-140.66;100.00;55571.53;5100573;28;20062;-81
2023/07/31 07:15:41;;;;;;;11.70;10.10;;;;;;;-140.66;100.00;55571.53;5094908;28;20042;-82
2023/07/31 07:18:27;;;;;;;10.40;9.40;;;;;;;-140.66;100.00;55571.53;5094608;28;20047;-81
2023/07/31 07:21:15;;;;;;;11.77;10.57;;;;;;;-140.66;100.00;55571.53;5080558;28;20415;-81
2023/07/31 07:24:01;;;;;;;10.20;9.20;;;;;;;-140.66;100.00;55571.53;5094869;28;20024;-82
2023/07/31 07:26:47;;;;;;;9.73;8.73;;;;;;;-140.66;100.00;55571.53;5095392;28;20054;-82
2023/07/31 07:29:34;;;;;;;9.38;8.45;;;;;;;-140.66;100.00;55571.53;5080291;28;20034;-80
2023/07/31 07:32:20;;;;;;;9.50;8.60;;;;;;;-140.66;100.00;55571.53;5080898;28;20050;-81
2023/07/31 07:35:07;;;;;;;9.85;8.95;;;;;;;-140.66;100.00;55571.53;5079985;28;20173;-81
2023/07/31 07:37:53;;;;;;;10.13;9.13;;;;;;;-140.66;100.00;55571.53;5094656;28;20039;-81
2023/07/31 07:40:39;;;;;;;11.50;10.07;;;;;;;-140.66;100.00;55571.53;5079894;28;20028;-79
2023/07/31 07:43:25;;;;;;;13.68;9.95;;;;;;;-140.66;100.00;55571.53;5078806;28;20111;-80
2023/07/31 07:46:11;;;;;;;11.20;10.07;;;;;;;-140.66;100.00;55571.53;5080909;28;20079;-82
2023/07/31 07:48:57;;;;;;;11.73;10.55;;;;;;;-140.66;100.00;55571.53;5094399;28;20028;-82
2023/07/31 07:51:43;;;;;;;12.52;9.55;;;;;;;-140.66;100.00;55571.53;5079625;28;20076;-79
2023/07/31 07:54:28;;;;;;;11.23;10.13;;;;;;;-140.66;100.00;55571.53;5080501;28;20168;-81
2023/07/31 07:57:14;;;;;;;11.60;10.40;;;;;;;-140.66;100.00;55571.53;5097312;28;20093;-81
2023/07/31 08:00:00;;;;;;;10.85;9.60;;;;;;;-140.66;100.00;55571.53;5082688;28;20024;-81
2023/07/31 08:02:46;;;;;;;11.00;9.68;;;;;;;-140.66;100.00;55571.53;5098835;28;20057;-81
2023/07/31 08:05:34;;;;;;;10.52;9.43;;;;;;;-140.66;100.00;55571.53;5083901;28;20085;-81
2023/07/31 08:08:19;;;;;;;10.38;9.27;;;;;;;-140.66;100.00;55571.53;5099068;28;20035;-81
2023/07/31 08:11:06;;;;;;;10.40;8.75;;;;;;;-140.66;100.00;55571.53;5098376;28;20024;-81
2023/07/31 08:13:51;;;;;;;11.80;9.50;;;;;;;-140.66;100.00;55571.53;5085110;28;20119;-82
2023/07/31 08:16:37;;;;;;;11.18;9.38;;;;;;;-140.66;100.00;55571.53;5098742;28;20097;-82
2023/07/31 08:19:23;;;;;;;10.43;9.43;;;;;;;-140.66;100.00;55571.53;5083542;28;20044;-81
2023/07/31 08:22:09;;;;;;;10.30;9.27;;;;;;;-140.66;100.00;55571.53;5098718;28;20376;-81
2023/07/31 08:24:55;;;;;;;10.32;9.20;;;;;;;-140.66;100.00;55571.53;5097572;28;20031;-81
2023/07/31 08:27:44;;;;;;;10.40;9.40;;;;;;;-140.66;100.00;55571.53;5083725;28;20067;-81
2023/07/31 08:30:30;;;;;;;10.93;9.73;;;;;;;-140.66;100.00;55571.53;5083211;28;20024;-82
2023/07/31 08:33:16;;;;;;;11.90;9.30;;;;;;;-140.66;100.00;55571.53;5083241;28;20016;-83
2023/07/31 08:36:02;;;;;;;9.93;8.60;;;;;;;-140.66;100.00;55571.53;5098032;28;20028;-81
2023/07/31 08:38:48;;;;;;;9.98;8.98;;;;;;;-140.66;100.00;55571.53;5083124;28;20042;-82
2023/07/31 08:41:39;;;;;;;11.35;8.98;;;;;;;-140.66;100.00;55571.53;5097266;28;20031;-81
2023/07/31 08:44:25;;;;;;;10.27;9.23;;;;;;;-140.66;100.00;55571.53;5083035;28;20032;-82
2023/07/31 08:47:12;;;;;;;10.35;9.32;;;;;;;-140.66;100.00;55571.53;5097989;28;20031;-82
2023/07/31 08:49:59;;;;;;;9.93;8.57;;;;;;;-140.66;100.00;55571.53;5097329;28;20052;-81
2023/07/31 08:52:50;;;;;;;9.25;8.35;;;;;;;-140.66;100.00;55571.53;5084033;28;20042;-81
2023/07/31 08:55:37;;;;;;;9.60;8.43;;;;;;;-140.66;100.00;55571.53;5097486;28;20028;-82
2023/07/31 08:58:24;;;;;;;8.80;7.78;;;;;;;-140.66;100.00;55571.53;5083088;28;20062;-81
2023/07/31 09:01:12;;;;;;;9.43;8.43;;;;;;;-140.66;100.00;55571.53;5081875;28;20452;-82
2023/07/31 09:04:01;;;;;;;9.93;8.27;;;;;;;-140.66;100.00;55571.53;5097310;28;20146;-80
2023/07/31 09:06:48;;;;;;;9.65;8.65;;;;;;;-140.66;100.00;55571.53;5096933;28;20040;-82
2023/07/31 09:09:34;;;;;;;8.90;8.10;;;;;;;-140.66;100.00;55571.53;5096160;28;20024;-83
2023/07/31 09:12:19;;;;;;;10.82;8.20;;;;;;;-140.66;100.00;55571.53;5082353;28;20115;-82
2023/07/31 09:15:06;;;;;;;8.93;8.00;;;;;;;-140.66;100.00;55571.53;5096644;28;20467;-81
2023/07/31 09:18:00;;;;;;;9.73;8.13;;;;;;;-140.66;100.00;55571.53;5096887;28;20111;-82
2023/07/31 09:21:00;;;;;;;9.98;8.50;;;;;;;-140.66;100.00;55571.53;5061755;28;20120;-81
2023/07/31 09:23:54;;;;;;;10.80;8.88;;;;;;;-140.66;100.00;55571.53;5080143;28;20433;-81
2023/07/31 09:26:39;;;;;;;10.02;9.02;;;;;;;-140.66;100.00;55571.53;5085711;28;20035;-82
2023/07/31 09:29:27;;;;;;;9.63;8.70;;;;;;;-140.66;100.00;55571.53;5079171;28;20028;-82
2023/07/31 09:32:17;;;;;;;9.98;8.98;;;;;;;-140.66;100.00;55571.53;5081514;28;20025;-81
2023/07/31 09:35:22;;;;;;;12.00;9.07;;;;;;;-140.66;100.00;55571.53;5062045;28;20107;-81
2023/07/31 09:38:13;;;;;;;16.15;9.00;;;;;;;-140.66;100.00;55571.53;5077461;28;20047;-82
2023/07/31 09:40:59;;;;;;;11.65;8.65;;;;;;;-140.66;100.00;55571.53;5076119;28;20029;-81
2023/07/31 09:43:53;;;;;;;12.43;10.40;;;;;;;-140.66;100.00;55571.53;5078429;28;20025;-80
2023/07/31 09:46:39;;;;;;;13.35;9.23;;;;;;;-140.66;100.00;55571.53;5069998;28;20040;-82
2023/07/31 09:49:25;;;;;;;11.57;9.07;;;;;;;-140.66;100.00;55571.53;5091374;28;20503;-82
2023/07/31 09:52:14;;;;;;;11.25;9.32;;;;;;;-140.66;100.00;55571.53;5065439;28;20038;-81
2023/07/31 09:54:59;;;;;;;12.95;10.07;;;;;;;-140.66;100.00;55571.53;5077909;28;20035;-82
2023/07/31 09:57:49;;;;;;;13.23;9.73;;;;;;;-140.66;100.00;55571.53;5076326;28;20028;-74
2023/07/31 10:00:35;;;;;;;13.00;10.45;;;;;;;-140.66;100.00;55571.53;5076340;28;20111;-75
2023/07/31 10:03:21;;;;;;;12.05;9.52;;;;;;;-140.66;100.00;55571.53;5076893;28;20029;-77
2023/07/31 10:06:09;;;;;;;13.98;11.27;;;;;;;-140.66;100.00;55571.53;5076049;28;20400;-78
2023/07/31 10:08:56;;;;;;;13.95;11.35;;;;;;;-140.66;100.00;55571.53;5075229;28;20321;-74
2023/07/31 10:11:50;;;;;;;19.27;12.27;;;;;;;-140.66;100.00;55571.53;5075447;28;20354;-74
2023/07/31 10:14:37;;;;;;;16.98;12.65;;;;;;;-140.66;100.00;55571.53;5061470;28;20024;-75
2023/07/31 10:17:23;;;;;;;22.60;13.55;;;;;;;-140.66;100.00;55571.53;5075937;28;20032;-73
2023/07/31 10:20:10;;;;;;;20.88;11.10;;;;;;;-140.66;100.00;55571.53;5077033;28;20036;-74
2023/07/31 10:22:56;;;;;;;30.50;12.57;;;;;;;-140.66;100.00;55571.53;5080312;28;20456;-75
2023/07/31 10:25:52;;;;;;;23.63;12.55;;;;;;;-140.66;100.00;55571.53;5096263;28;20024;-74
2023/07/31 10:28:39;;;;;;;15.82;11.93;;;;;;;-140.66;100.00;55571.53;5097902;28;20039;-75
2023/07/31 10:31:25;;;;;;;16.58;11.48;;;;;;;-140.66;100.00;55571.53;5080903;28;20024;-74
2023/07/31 10:34:11;;;;;;;24.13;11.38;;;;;;;-140.66;100.00;55571.53;5080296;28;20111;-75
2023/07/31 10:37:22;;;;;;;15.32;11.18;;;;;;;-140.66;100.00;55571.53;5094449;28;20066;-75
2023/07/31 10:40:38;;;;;;;16.17;11.90;;;;;;;-140.66;100.00;55571.53;5080878;28;20028;-75
2023/07/31 10:43:27;;;;;;;14.27;10.93;;;;;;;-140.66;100.00;55571.53;5072843;28;20147;-75
2023/07/31 10:46:13;;;;;;;22.70;11.02;;;;;;;-140.66;100.00;55571.53;5080004;28;20020;-78
2023/07/31 10:49:03;;;;;;;21.00;10.68;;;;;;;-140.66;100.00;55571.53;5079775;28;20028;-77
2023/07/31 10:51:49;;;;;;;17.67;10.35;;;;;;;-140.66;100.00;55571.53;5095474;28;20028;-73
2023/07/31 10:54:35;;;;;;;26.80;12.20;;;;;;;-140.66;100.00;55571.53;5094482;28;20035;-76
2023/07/31 10:57:21;;;;;;;18.98;12.13;;;;;;;-140.66;100.00;55571.53;5081311;28;20020;-76
2023/07/31 11:00:25;;;;;;;18.88;11.52;;;;;;;-140.66;100.00;55571.53;5079664;28;20352;-78
2023/07/31 11:03:14;;;;;;;25.55;11.57;;;;;;;-140.66;100.00;55571.53;5079621;28;20045;-77
2023/07/31 11:06:03;;;;;;;23.80;11.88;;;;;;;-140.66;100.00;55571.53;5078812;28;20038;-76
2023/07/31 11:08:50;;;;;;;27.05;10.80;;;;;;;-140.66;100.00;55571.53;5078891;28;20039;-77
2023/07/31 11:11:36;;;;;;;20.20;11.35;;;;;;;-140.66;100.00;55571.53;5095018;28;20031;-76
2023/07/31 11:14:22;;;;;;;12.43;11.07;;;;;;;-140.66;100.00;55571.53;5094339;28;20349;-77
2023/07/31 11:17:08;;;;;;;18.40;9.75;;;;;;;-140.66;100.00;55571.53;5094579;28;20042;-77
2023/07/31 11:19:54;;;;;;;13.45;9.75;;;;;;;-140.66;100.00;55571.53;5077989;28;20048;-76
2023/07/31 11:22:41;;;;;;;17.95;11.35;;;;;;;-140.66;100.00;55571.53;5074705;28;20032;-75
2023/07/31 11:25:31;;;;;;;16.02;11.07;;;;;;;-140.66;100.00;55571.53;5073755;28;20039;-75
2023/07/31 11:28:19;;;;;;;14.27;10.23;;;;;;;-140.66;100.00;55571.53;5074533;28;20021;-75
2023/07/31 11:31:05;;;;;;;12.23;10.00;;;;;;;-140.66;100.00;55571.53;5073444;28;20031;-76
2023/07/31 11:34:03;;;;;;;32.08;11.25;;;;;;;-140.66;100.00;55571.53;5072846;28;20039;-74
2023/07/31 11:36:54;;;;;;;24.55;10.52;;;;;;;-140.66;100.00;55571.53;5075098;28;20133;-75
2023/07/31 11:39:41;;;;;;;11.60;10.38;;;;;;;-140.66;100.00;55571.53;5059503;28;20170;-76
2023/07/31 11:42:27;;;;;;;15.43;9.77;;;;;;;-140.66;100.00;55571.53;5061067;28;20033;-77
2023/07/31 11:45:12;;;;;;;10.80;9.38;;;;;;;-140.66;100.00;55571.53;5074629;28;20040;-76
2023/07/31 11:48:01;;;;;;;12.57;9.40;;;;;;;-140.66;100.00;55571.53;5074590;28;20472;-75
2023/07/31 11:50:49;;;;;;;14.13;9.48;;;;;;;-140.66;100.00;55571.53;5059218;28;20027;-77
2023/07/31 11:53:38;;;;;;;12.25;9.10;;;;;;;-140.66;100.00;55571.53;5075834;28;20031;-76
2023/07/31 11:56:24;;;;;;;10.85;9.73;;;;;;;-140.66;100.00;55571.53;5073574;28;20064;-76
2023/07/31 11:59:12;;;;;;;15.32;9.80;;;;;;;-140.66;100.00;55571.53;5074779;28;20024;-76
2023/07/31 12:01:58;;;;;;;11.68;10.15;;;;;;;-140.66;100.00;55571.53;5062120;28;20492;-77
2023/07/31 12:04:46;;;;;;;13.65;10.15;;;;;;;-140.66;100.00;55571.53;5063467;28;20035;-77
2023/07/31 12:07:49;;;;;;;12.60;10.65;;;;;;;-140.66;100.00;55571.53;5086771;28;20462;-74
2023/07/31 12:10:35;;;;;;;16.00;10.32;;;;;;;-140.66;100.00;55571.53;5073790;28;20035;-76
2023/07/31 12:13:23;;;;;;;11.70;9.93;;;;;;;-140.66;100.00;55571.53;5076455;28;20036;-76
2023/07/31 12:16:09;;;;;;;12.60;9.75;;;;;;;-140.66;100.00;55571.53;5074312;28;20362;-77
2023/07/31 12:18:55;;;;;;;23.33;10.20;;;;;;;-140.66;100.00;55571.53;5081293;28;20123;-76
2023/07/31 12:21:41;;;;;;;12.57;10.85;;;;;;;-140.66;100.00;55571.53;5094207;28;20090;-76
2023/07/31 12:24:27;;;;;;;15.77;10.20;;;;;;;-140.66;100.00;55571.53;5102603;28;20028;-74
2023/07/31 12:27:14;;;;;;;14.52;9.38;;;;;;;-140.66;100.00;55571.53;5085526;28;20016;-76
2023/07/31 12:30:00;;;;;;;9.57;8.68;;;;;;;-140.66;100.00;55571.53;5095291;28;20024;-74
2023/07/31 12:32:46;;;;;;;10.57;8.68;;;;;;;-140.66;100.00;55571.53;5092574;28;20032;-75